Time,TemperatureF,DewpointF,PressureIn,WindDirection,WindDirectionDegrees,WindSpeedMPH,WindSpeedGustMPH,Humidity,HourlyPrecipIn,Conditions,Clouds,dailyrainin,SolarRadiationWatts/m^2,SoftwareType,DateUTC
2013-10-21 00:02:00,33.3,31.8,30.16,SSW,207,0.0,0.0,94,0.00,RA,,0.00,0.0,WeatherDisplay:10.37,2013-10-21 06:02:00,
2013-10-21 00:07:00,33.2,31.7,30.16,SSW,207,0.0,0.0,94,0.00,RA,,0.00,0.0,WeatherDisplay:10.37,2013-10-21 06:07:00,
2013-10-21 00:12:00,33.1,31.6,30.16,SSW,207,0.0,0.0,94,0.00,SCT,,0.00,0.0,WeatherDisplay:10.37,2013-10-21 06:12:00,
2013-10-21 00:17:00,33.0,31.5,30.16,SSW,207,0.0,0.0,94,0.00,SCT,,0.00,0.0,WeatherDisplay:10.37,2013-10-21 06:17:00,
2013-10-21 00:22:00,32.8,31.0,30.16,SSW,207,0.0,0.0,93,0.00,SCT,,0.00,0.0,WeatherDisplay:10.37,2013-10-21 06:22:00,
2013-10-21 00:27:00,32.8,31.3,30.16,SSW,206,0.0,0.0,94,0.00,SCT,,0.00,0.0,WeatherDisplay:10.37,2013-10-21 06:27:00,
2013-10-21 00:32:00,32.9,31.4,30.16,SSW,207,0.0,0.0,94,0.00,SCT,,0.00,0.0,WeatherDisplay:10.37,2013-10-21 06:32:00,
2013-10-21 00:37:00,32.9,31.4,30.16,SSW,206,0.0,0.0,94,0.00,SCT,,0.00,0.0,WeatherDisplay:10.37,2013-10-21 06:37:00,
2013-10-21 00:42:00,32.9,31.4,30.16,SSW,207,0.0,0.0,94,0.00,SCT,,0.00,0.0,WeatherDisplay:10.37,2013-10-21 06:42:00,
2013-10-21 00:47:00,32.8,31.3,30.17,SSW,207,0.0,0.0,94,0.00,SCT,,0.00,0.0,WeatherDisplay:10.37,2013-10-21 06:47:00,
2013-10-21 00:52:00,32.8,31.3,30.17,SSW,206,0.0,0.0,94,0.00,SCT,,0.00,0.0,WeatherDisplay:10.37,2013-10-21 06:52:00,
2013-10-21 00:57:00,32.7,31.2,30.17,SSW,207,0.0,0.0,94,0.00,SCT,,0.00,0.0,WeatherDisplay:10.37,2013-10-21 06:57:00,
2013-10-21 01:02:00,32.7,31.2,30.17,SSW,207,0.0,0.0,94,0.00,SCT,,0.00,0.0,WeatherDisplay:10.37,2013-10-21 07:02:00,
2013-10-21 01:07:00,32.7,31.2,30.17,SSW,206,0.0,0.0,94,0.00,SCT,,0.00,0.0,WeatherDisplay:10.37,2013-10-21 07:07:00,
2013-10-21 01:12:00,32.7,31.2,30.17,SSW,207,0.0,0.0,94,0.00,SCT,,0.00,0.0,WeatherDisplay:10.37,2013-10-21 07:12:00,
2013-10-21 01:17:00,32.7,31.2,30.17,SSW,207,0.0,0.0,94,0.00,SCT,,0.00,0.0,WeatherDisplay:10.37,2013-10-21 07:17:00,
2013-10-21 01:22:00,32.6,31.1,30.17,SSW,207,0.0,0.0,94,0.00,SCT,,0.00,0.0,WeatherDisplay:10.37,2013-10-21 07:22:00,
2013-10-21 01:27:00,32.6,31.1,30.17,SSW,206,0.0,0.0,94,0.00,SCT,,0.00,0.0,WeatherDisplay:10.37,2013-10-21 07:27:00,
2013-10-21 01:32:00,32.6,31.1,30.17,SSW,207,0.0,0.0,94,0.00,SCT,,0.00,0.0,WeatherDisplay:10.37,2013-10-21 07:32:00,
2013-10-21 01:37:00,32.4,30.9,30.17,SSW,207,0.0,0.0,94,0.00,SCT,,0.00,0.0,WeatherDisplay:10.37,2013-10-21 07:37:00,
2013-10-21 01:42:00,32.2,30.7,30.17,SSW,207,0.0,0.0,94,0.00,SCT,,0.00,0.0,WeatherDisplay:10.37,2013-10-21 07:42:00,
2013-10-21 01:47:00,32.1,30.6,30.17,SSW,206,0.0,0.0,94,0.00,SCT,,0.00,0.0,WeatherDisplay:10.37,2013-10-21 07:47:00,
2013-10-21 01:52:00,32.0,30.5,30.18,SSW,206,0.0,0.0,94,0.00,SCT,,0.00,0.0,WeatherDisplay:10.37,2013-10-21 07:52:00,
2013-10-21 01:57:00,31.9,30.4,30.18,SSW,207,0.0,0.0,94,0.00,SCT,,0.00,0.0,WeatherDisplay:10.37,2013-10-21 07:57:00,
2013-10-21 02:02:00,31.8,30.3,30.18,SSW,206,0.0,0.0,94,0.00,SCT,,0.00,0.0,WeatherDisplay:10.37,2013-10-21 08:02:00,
2013-10-21 02:07:00,31.7,30.2,30.18,SSW,206,0.0,0.0,94,0.00,SCT,,0.00,0.0,WeatherDisplay:10.37,2013-10-21 08:07:00,
2013-10-21 02:12:00,31.7,30.2,30.18,SSW,207,0.0,0.0,94,0.00,SCT,,0.00,0.0,WeatherDisplay:10.37,2013-10-21 08:12:00,
2013-10-21 02:17:00,31.7,30.2,30.19,SSW,207,0.0,0.0,94,0.00,SCT,,0.00,0.0,WeatherDisplay:10.37,2013-10-21 08:17:00,
2013-10-21 02:22:00,31.7,30.2,30.19,SSW,206,0.0,0.0,94,0.00,SCT,,0.00,0.0,WeatherDisplay:10.37,2013-10-21 08:22:00,
2013-10-21 02:27:00,31.7,30.2,30.20,SSW,207,0.0,0.0,94,0.00,SCT,,0.00,0.0,WeatherDisplay:10.37,2013-10-21 08:27:00,
2013-10-21 02:32:00,31.6,30.1,30.19,SSW,207,0.0,0.0,94,0.00,SCT,,0.00,0.0,WeatherDisplay:10.37,2013-10-21 08:32:00,
2013-10-21 02:37:00,31.5,30.0,30.19,SSW,206,0.0,0.0,94,0.00,SCT,,0.00,0.0,WeatherDisplay:10.37,2013-10-21 08:37:00,
2013-10-21 02:42:00,31.3,29.8,30.19,SSW,206,0.0,0.0,94,0.00,SCT,,0.00,0.0,WeatherDisplay:10.37,2013-10-21 08:42:00,
2013-10-21 02:47:00,31.2,29.7,30.20,SSW,206,0.0,0.0,94,0.00,SCT,,0.00,0.0,WeatherDisplay:10.37,2013-10-21 08:47:00,
2013-10-21 02:52:00,31.1,29.6,30.21,SSW,207,0.0,0.0,94,0.00,SCT,,0.00,0.0,WeatherDisplay:10.37,2013-10-21 08:52:00,
2013-10-21 02:57:00,31.0,29.5,30.21,SSW,207,0.0,0.0,94,0.00,SCT,,0.00,0.0,WeatherDisplay:10.37,2013-10-21 08:57:00,
2013-10-21 03:02:00,31.0,29.5,30.20,SSW,207,0.0,0.0,94,0.00,SCT,,0.00,0.0,WeatherDisplay:10.37,2013-10-21 09:02:00,
2013-10-21 03:07:00,30.9,29.4,30.20,SSW,207,0.0,0.0,94,0.00,SCT,,0.00,0.0,WeatherDisplay:10.37,2013-10-21 09:07:00,
2013-10-21 03:12:00,30.8,29.3,30.20,SSW,207,0.0,0.0,94,0.00,SCT,,0.00,0.0,WeatherDisplay:10.37,2013-10-21 09:12:00,
2013-10-21 03:17:00,30.7,29.2,30.21,SSW,206,0.0,0.0,94,0.00,SCT,,0.00,0.0,WeatherDisplay:10.37,2013-10-21 09:17:00,
2013-10-21 03:22:00,30.6,29.1,30.21,SSW,206,0.0,0.0,94,0.00,SCT,,0.00,0.0,WeatherDisplay:10.37,2013-10-21 09:22:00,
2013-10-21 03:27:00,30.5,29.0,30.21,SSW,207,0.0,0.0,94,0.00,SCT,,0.00,0.0,WeatherDisplay:10.37,2013-10-21 09:27:00,
2013-10-21 03:32:00,30.5,29.0,30.21,SSW,207,0.0,0.0,94,0.00,SCT,,0.00,0.0,WeatherDisplay:10.37,2013-10-21 09:32:00,
2013-10-21 03:37:00,30.4,28.9,30.21,SSW,207,0.0,0.0,94,0.00,SCT,,0.00,0.0,WeatherDisplay:10.37,2013-10-21 09:37:00,
2013-10-21 03:42:00,30.3,28.8,30.21,SSW,206,0.0,0.0,94,0.00,SCT,,0.00,0.0,WeatherDisplay:10.37,2013-10-21 09:42:00,
2013-10-21 03:47:00,30.3,28.8,30.21,SSW,207,0.0,0.0,94,0.00,SCT,,0.00,0.0,WeatherDisplay:10.37,2013-10-21 09:47:00,
2013-10-21 03:52:00,30.2,28.7,30.20,SSW,206,0.0,0.0,94,0.00,SCT,,0.00,0.0,WeatherDisplay:10.37,2013-10-21 09:52:00,
2013-10-21 03:57:00,30.1,28.6,30.20,SSW,207,0.0,0.0,94,0.00,SCT,,0.00,0.0,WeatherDisplay:10.37,2013-10-21 09:57:00,
2013-10-21 04:02:00,30.1,28.6,30.21,SSW,206,0.0,0.0,94,0.00,SCT,,0.00,0.0,WeatherDisplay:10.37,2013-10-21 10:02:00,
2013-10-21 04:07:00,30.2,28.9,30.21,SSW,207,0.0,0.0,95,0.00,SCT,,0.00,0.0,WeatherDisplay:10.37,2013-10-21 10:07:00,
2013-10-21 04:12:00,30.2,28.9,30.21,SSW,207,0.0,0.0,95,0.00,SCT,,0.00,0.0,WeatherDisplay:10.37,2013-10-21 10:12:00,
2013-10-21 04:17:00,30.2,28.9,30.22,SSW,206,0.0,0.0,95,0.00,SCT,,0.00,0.0,WeatherDisplay:10.37,2013-10-21 10:17:00,
2013-10-21 04:22:00,30.2,28.9,30.21,SSW,207,0.0,0.0,95,0.00,SCT,,0.00,0.0,WeatherDisplay:10.37,2013-10-21 10:22:00,
2013-10-21 04:27:00,30.1,28.6,30.21,SSW,207,0.0,0.0,94,0.00,SCT,,0.00,0.0,WeatherDisplay:10.37,2013-10-21 10:27:00,
2013-10-21 04:32:00,30.0,28.5,30.22,SSW,206,0.0,0.0,94,0.00,SCT,,0.00,0.0,WeatherDisplay:10.37,2013-10-21 10:32:00,
2013-10-21 04:37:00,29.9,28.4,30.22,SSW,206,0.0,0.0,94,0.00,SCT,,0.00,0.0,WeatherDisplay:10.37,2013-10-21 10:37:00,
2013-10-21 04:42:00,29.7,28.2,30.21,SSW,207,0.0,0.0,94,0.00,SCT,,0.00,0.0,WeatherDisplay:10.37,2013-10-21 10:42:00,
2013-10-21 04:47:00,29.7,28.2,30.21,SSW,206,0.0,0.0,94,0.00,SCT,,0.00,0.0,WeatherDisplay:10.37,2013-10-21 10:47:00,
2013-10-21 04:52:00,29.7,28.2,30.21,SSW,206,0.0,0.0,94,0.00,SCT,,0.00,0.0,WeatherDisplay:10.37,2013-10-21 10:52:00,
2013-10-21 04:57:00,29.7,28.2,30.22,SSW,207,0.0,0.0,94,0.00,SCT,,0.00,0.0,WeatherDisplay:10.37,2013-10-21 10:57:00,
2013-10-21 05:02:00,29.8,28.5,30.22,SSW,207,0.0,0.0,95,0.00,SCT,,0.00,0.0,WeatherDisplay:10.37,2013-10-21 11:02:00,
2013-10-21 05:07:00,30.0,28.7,30.22,SSW,207,0.0,0.0,95,0.00,SCT,,0.00,0.0,WeatherDisplay:10.37,2013-10-21 11:07:00,
2013-10-21 05:12:00,29.9,28.6,30.22,SSW,207,0.0,0.0,95,0.00,SCT,,0.00,0.0,WeatherDisplay:10.37,2013-10-21 11:12:00,
2013-10-21 05:17:00,29.9,28.6,30.22,SSW,207,0.0,0.0,95,0.00,SCT,,0.00,0.0,WeatherDisplay:10.37,2013-10-21 11:17:00,
2013-10-21 05:22:00,29.8,28.5,30.22,SSW,207,0.0,0.0,95,0.00,SCT,,0.00,0.0,WeatherDisplay:10.37,2013-10-21 11:22:00,
2013-10-21 05:27:00,29.8,28.5,30.22,SSW,206,0.0,0.0,95,0.00,SCT,,0.00,0.0,WeatherDisplay:10.37,2013-10-21 11:27:00,
2013-10-21 05:32:00,29.7,28.4,30.22,SSW,206,0.0,0.0,95,0.00,SCT,,0.00,0.0,WeatherDisplay:10.37,2013-10-21 11:32:00,
2013-10-21 05:37:00,29.7,28.4,30.22,SSW,207,0.0,0.0,95,0.00,SCT,,0.00,0.0,WeatherDisplay:10.37,2013-10-21 11:37:00,
2013-10-21 05:42:00,29.7,28.4,30.22,SSW,206,0.0,0.0,95,0.00,SCT,,0.00,0.0,WeatherDisplay:10.37,2013-10-21 11:42:00,
2013-10-21 05:47:00,29.7,28.4,30.22,SSW,206,0.0,0.0,95,0.00,SCT,,0.00,0.0,WeatherDisplay:10.37,2013-10-21 11:47:00,
2013-10-21 05:52:00,29.6,28.3,30.21,SSW,207,0.0,0.0,95,0.00,SCT,,0.00,0.0,WeatherDisplay:10.37,2013-10-21 11:52:00,
2013-10-21 05:57:00,29.6,28.3,30.22,SSW,207,0.0,0.0,95,0.00,SCT,,0.00,0.0,WeatherDisplay:10.37,2013-10-21 11:57:00,
2013-10-21 06:02:00,29.5,28.2,30.22,SSW,206,0.0,0.0,95,0.00,SCT,,0.00,0.0,WeatherDisplay:10.37,2013-10-21 12:02:00,
2013-10-21 06:07:00,29.4,28.1,30.22,SSW,207,0.0,0.0,95,0.00,SCT,,0.00,0.0,WeatherDisplay:10.37,2013-10-21 12:07:00,
2013-10-21 06:12:00,29.4,28.1,30.22,SSW,207,0.0,0.0,95,0.00,SCT,,0.00,0.0,WeatherDisplay:10.37,2013-10-21 12:12:00,
2013-10-21 06:17:00,29.4,28.1,30.22,SSW,206,0.0,0.0,95,0.00,SCT,,0.00,0.0,WeatherDisplay:10.37,2013-10-21 12:17:00,
2013-10-21 06:22:00,29.4,28.1,30.23,SSW,206,0.0,0.0,95,0.00,SCT,,0.00,0.0,WeatherDisplay:10.37,2013-10-21 12:22:00,
2013-10-21 06:27:00,29.2,27.9,30.23,SSW,207,0.0,0.0,95,0.00,SCT,,0.00,0.0,WeatherDisplay:10.37,2013-10-21 12:27:00,
2013-10-21 06:32:00,29.2,27.9,30.23,SSW,207,0.0,0.0,95,0.00,SCT,,0.00,0.0,WeatherDisplay:10.37,2013-10-21 12:32:00,
2013-10-21 06:37:00,29.2,27.9,30.23,SSW,206,0.0,0.0,95,0.00,SCT,,0.00,0.0,WeatherDisplay:10.37,2013-10-21 12:37:00,
2013-10-21 06:42:00,29.1,27.8,30.23,SSW,207,0.0,0.0,95,0.00,SCT,,0.00,0.0,WeatherDisplay:10.37,2013-10-21 12:42:00,
2013-10-21 06:47:00,29.0,27.7,30.23,SSW,207,0.0,0.0,95,0.00,SCT,,0.00,0.0,WeatherDisplay:10.37,2013-10-21 12:47:00,
2013-10-21 06:52:00,29.0,27.5,30.23,SSW,207,0.0,0.0,94,0.00,SCT,,0.00,0.0,WeatherDisplay:10.37,2013-10-21 12:52:00,
2013-10-21 06:57:00,29.0,27.7,30.23,SSW,206,0.0,0.0,95,0.00,SCT,,0.00,0.0,WeatherDisplay:10.37,2013-10-21 12:57:00,
2013-10-21 07:02:00,29.0,27.7,30.23,SSW,207,0.0,0.0,95,0.00,SCT,,0.00,0.0,WeatherDisplay:10.37,2013-10-21 13:02:00,
2013-10-21 07:07:00,29.0,27.7,30.23,SSW,207,0.0,0.0,95,0.00,SCT,,0.00,0.0,WeatherDisplay:10.37,2013-10-21 13:07:00,
2013-10-21 07:12:00,29.0,27.7,30.23,SSW,206,0.0,0.0,95,0.00,SCT,,0.00,0.0,WeatherDisplay:10.37,2013-10-21 13:12:00,
2013-10-21 07:17:00,28.9,27.6,30.24,SSW,206,0.0,0.0,95,0.00,SCT,,0.00,0.0,WeatherDisplay:10.37,2013-10-21 13:17:00,
2013-10-21 07:22:00,28.9,27.6,30.23,SSW,206,0.0,0.0,95,0.00,SCT,,0.00,5.0,WeatherDisplay:10.37,2013-10-21 13:22:00,
2013-10-21 07:27:00,29.1,27.8,30.24,SSW,207,0.0,0.0,95,0.00,SCT,,0.00,7.0,WeatherDisplay:10.37,2013-10-21 13:27:00,
2013-10-21 07:32:00,29.2,27.9,30.24,SSW,207,0.0,0.0,95,0.00,SCT,,0.00,9.0,WeatherDisplay:10.37,2013-10-21 13:32:00,
2013-10-21 07:37:00,29.5,28.2,30.24,SSW,207,0.0,0.0,95,0.00,SCT,,0.00,11.0,WeatherDisplay:10.37,2013-10-21 13:37:00,
2013-10-21 07:42:00,29.7,28.4,30.24,SSW,207,0.0,0.0,95,0.00,SCT,,0.00,14.0,WeatherDisplay:10.37,2013-10-21 13:42:00,
2013-10-21 07:47:00,29.7,28.4,30.25,SSW,206,0.0,0.0,95,0.00,SCT,,0.00,16.0,WeatherDisplay:10.37,2013-10-21 13:47:00,
2013-10-21 07:52:00,29.8,28.5,30.25,SSW,206,0.0,0.0,95,0.00,SCT,,0.00,18.0,WeatherDisplay:10.37,2013-10-21 13:52:00,
2013-10-21 07:57:00,29.9,28.6,30.25,SSW,207,0.0,0.0,95,0.00,SCT,,0.00,18.0,WeatherDisplay:10.37,2013-10-21 13:57:00,
2013-10-21 08:02:00,30.1,28.8,30.25,SSW,207,0.0,0.0,95,0.00,SCT,,0.00,26.0,WeatherDisplay:10.37,2013-10-21 14:02:00,
2013-10-21 08:07:00,30.3,29.0,30.25,SSW,207,0.0,0.0,95,0.00,SCT,,0.00,21.0,WeatherDisplay:10.37,2013-10-21 14:07:00,
2013-10-21 08:12:00,30.8,29.5,30.25,SSW,207,0.0,0.0,95,0.00,SCT,,0.00,21.0,WeatherDisplay:10.37,2013-10-21 14:12:00,
2013-10-21 08:17:00,31.2,29.9,30.26,SSW,207,3.5,3.5,95,0.00,OVC,,0.00,23.0,WeatherDisplay:10.37,2013-10-21 14:17:00,
2013-10-21 08:22:00,31.6,30.3,30.26,SSW,207,0.0,0.0,95,0.00,OVC,,0.00,26.0,WeatherDisplay:10.37,2013-10-21 14:22:00,
2013-10-21 08:27:00,32.0,31.0,30.25,SSW,206,0.0,0.0,96,0.00,OVC,,0.00,26.0,WeatherDisplay:10.37,2013-10-21 14:27:00,
2013-10-21 08:32:00,32.3,31.0,30.25,SSW,207,0.0,0.0,95,0.00,OVC,,0.00,33.0,WeatherDisplay:10.37,2013-10-21 14:32:00,
2013-10-21 08:37:00,32.5,31.5,30.26,SSW,206,0.0,0.0,96,0.00,OVC,,0.00,28.0,WeatherDisplay:10.37,2013-10-21 14:37:00,
2013-10-21 08:42:00,32.8,31.5,30.26,SSW,207,0.0,0.0,95,0.00,OVC,,0.00,32.0,WeatherDisplay:10.37,2013-10-21 14:42:00,
2013-10-21 08:47:00,33.2,32.2,30.26,SSW,207,3.5,3.5,96,0.00,OVC,,0.00,30.0,WeatherDisplay:10.37,2013-10-21 14:47:00,
2013-10-21 08:52:00,33.6,32.3,30.26,SSW,210,3.5,3.5,95,0.00,OVC,,0.00,37.0,WeatherDisplay:10.37,2013-10-21 14:52:00,
2013-10-21 08:57:00,34.1,32.8,30.26,SSW,210,3.5,3.5,95,0.00,BKN,,0.00,264.0,WeatherDisplay:10.37,2013-10-21 14:57:00,
2013-10-21 09:02:00,34.6,33.3,30.26,SSW,210,0.0,0.0,95,0.00,SCT,,0.00,290.0,WeatherDisplay:10.37,2013-10-21 15:02:00,
2013-10-21 09:07:00,35.2,33.6,30.26,SSW,211,3.5,3.5,94,0.00,FEW,,0.00,311.0,WeatherDisplay:10.37,2013-10-21 15:07:00,
2013-10-21 09:12:00,35.8,33.7,30.26,SSW,212,3.5,3.5,92,0.00,FEW,,0.00,323.0,WeatherDisplay:10.37,2013-10-21 15:12:00,
2013-10-21 09:17:00,36.6,33.4,30.26,SW,217,3.5,3.5,88,0.00,FEW,,0.00,332.0,WeatherDisplay:10.37,2013-10-21 15:17:00,
2013-10-21 09:22:00,37.3,33.5,30.27,SW,219,3.5,3.5,86,0.00,FEW,,0.00,343.0,WeatherDisplay:10.37,2013-10-21 15:22:00,
2013-10-21 09:27:00,37.9,33.5,30.27,SW,218,4.0,4.0,84,0.00,FEW,,0.00,350.0,WeatherDisplay:10.37,2013-10-21 15:27:00,
2013-10-21 09:32:00,38.4,34.0,30.26,SSW,207,0.0,0.0,84,0.00,FEW,,0.00,360.0,WeatherDisplay:10.37,2013-10-21 15:32:00,
2013-10-21 09:37:00,39.1,34.1,30.26,SW,214,3.0,3.0,82,0.00,FEW,,0.00,373.0,WeatherDisplay:10.37,2013-10-21 15:37:00,
2013-10-21 09:42:00,39.5,34.5,30.27,SW,217,0.0,0.0,82,0.00,FEW,,0.00,383.0,WeatherDisplay:10.37,2013-10-21 15:42:00,
2013-10-21 09:47:00,40.2,34.5,30.26,SSW,203,0.0,0.0,80,0.00,FEW,,0.00,394.0,WeatherDisplay:10.37,2013-10-21 15:47:00,
2013-10-21 09:52:00,40.7,35.0,30.26,SSW,210,1.2,0.0,80,0.00,FEW,,0.00,404.0,WeatherDisplay:10.37,2013-10-21 15:52:00,
2013-10-21 09:57:00,41.3,34.6,30.26,SW,232,2.3,2.3,77,0.00,FEW,,0.00,413.0,WeatherDisplay:10.37,2013-10-21 15:57:00,
2013-10-21 10:02:00,41.8,34.8,30.26,SSW,206,3.0,3.0,76,0.00,FEW,,0.00,424.0,WeatherDisplay:10.37,2013-10-21 16:02:00,
2013-10-21 10:07:00,42.3,33.6,30.26,SW,215,3.5,3.5,71,0.00,FEW,,0.00,436.0,WeatherDisplay:10.37,2013-10-21 16:07:00,
2013-10-21 10:12:00,42.9,34.1,30.25,SW,225,4.6,4.6,71,0.00,FEW,,0.00,446.0,WeatherDisplay:10.37,2013-10-21 16:12:00,
2013-10-21 10:17:00,43.4,33.5,30.25,SW,229,3.5,3.5,68,0.00,FEW,,0.00,459.0,WeatherDisplay:10.37,2013-10-21 16:17:00,
2013-10-21 10:22:00,43.9,34.4,30.25,SW,216,3.5,3.5,69,0.00,FEW,,0.00,469.0,WeatherDisplay:10.37,2013-10-21 16:22:00,
2013-10-21 10:27:00,44.8,35.2,30.25,SSW,199,3.5,0.0,69,0.00,FEW,,0.00,482.0,WeatherDisplay:10.37,2013-10-21 16:27:00,
2013-10-21 10:32:00,45.4,33.9,30.25,SW,215,2.3,0.0,64,0.00,FEW,,0.00,490.0,WeatherDisplay:10.37,2013-10-21 16:32:00,
2013-10-21 10:37:00,46.1,35.7,30.25,SW,215,0.0,0.0,67,0.00,CLR,,0.00,506.0,WeatherDisplay:10.37,2013-10-21 16:37:00,
2013-10-21 10:42:00,46.7,34.4,30.24,SW,219,2.3,2.3,62,0.00,CLR,,0.00,527.0,WeatherDisplay:10.37,2013-10-21 16:42:00,
2013-10-21 10:47:00,47.3,33.7,30.25,SW,219,2.3,2.3,59,0.00,CLR,,0.00,545.0,WeatherDisplay:10.37,2013-10-21 16:47:00,
2013-10-21 10:52:00,47.9,33.4,30.24,SW,221,4.6,4.6,57,0.00,CLR,,0.00,557.0,WeatherDisplay:10.37,2013-10-21 16:52:00,
2013-10-21 10:57:00,48.2,32.8,30.24,SW,225,3.5,3.5,55,0.00,CLR,,0.00,566.0,WeatherDisplay:10.37,2013-10-21 16:57:00,
2013-10-21 11:02:00,48.6,32.7,30.24,WSW,237,3.5,3.5,54,0.00,CLR,,0.00,578.0,WeatherDisplay:10.37,2013-10-21 17:02:00,
2013-10-21 11:07:00,49.0,33.5,30.24,South,190,2.3,2.3,55,0.00,CLR,,0.00,589.0,WeatherDisplay:10.37,2013-10-21 17:07:00,
2013-10-21 11:12:00,49.5,32.6,30.23,South,186,0.0,0.0,52,0.00,CLR,,0.00,594.0,WeatherDisplay:10.37,2013-10-21 17:12:00,
2013-10-21 11:17:00,49.8,31.4,30.24,SW,219,4.6,4.6,49,0.00,CLR,,0.00,603.0,WeatherDisplay:10.37,2013-10-21 17:17:00,
2013-10-21 11:22:00,50.1,31.2,30.23,SW,225,4.6,4.6,48,0.00,CLR,,0.00,610.0,WeatherDisplay:10.37,2013-10-21 17:22:00,
2013-10-21 11:27:00,50.5,29.4,30.24,SW,222,3.5,3.5,44,0.00,CLR,,0.00,617.0,WeatherDisplay:10.37,2013-10-21 17:27:00,
2013-10-21 11:32:00,50.8,30.7,30.24,SW,233,3.5,3.5,46,0.00,CLR,,0.00,621.0,WeatherDisplay:10.37,2013-10-21 17:32:00,
2013-10-21 11:37:00,51.1,29.4,30.24,SW,215,4.0,4.0,43,0.00,CLR,,0.00,626.0,WeatherDisplay:10.37,2013-10-21 17:37:00,
2013-10-21 11:42:00,51.3,29.5,30.23,SSW,198,3.5,3.5,43,0.00,CLR,,0.00,629.0,WeatherDisplay:10.37,2013-10-21 17:42:00,
2013-10-21 11:47:00,51.7,29.3,30.24,SW,229,4.6,4.6,42,0.00,CLR,,0.00,638.0,WeatherDisplay:10.37,2013-10-21 17:47:00,
2013-10-21 11:52:00,51.9,27.7,30.23,SSW,207,1.0,1.0,39,0.00,CLR,,0.00,642.0,WeatherDisplay:10.37,2013-10-21 17:52:00,
2013-10-21 11:57:00,52.2,29.2,30.23,SSW,204,0.0,0.0,41,0.00,CLR,,0.00,647.0,WeatherDisplay:10.37,2013-10-21 17:57:00,
2013-10-21 12:02:00,52.8,27.2,30.23,West,281,2.3,2.3,37,0.00,CLR,,0.00,650.0,WeatherDisplay:10.37,2013-10-21 18:02:00,
2013-10-21 12:07:00,53.2,28.2,30.23,SSW,201,6.9,6.9,38,0.00,CLR,,0.00,654.0,WeatherDisplay:10.37,2013-10-21 18:07:00,
2013-10-21 12:12:00,53.1,27.5,30.23,SW,224,4.6,4.6,37,0.00,CLR,,0.00,657.0,WeatherDisplay:10.37,2013-10-21 18:12:00,
2013-10-21 12:17:00,53.3,28.3,30.22,SW,232,2.0,2.0,38,0.00,CLR,,0.00,659.0,WeatherDisplay:10.37,2013-10-21 18:17:00,
2013-10-21 12:22:00,53.8,29.4,30.22,SW,226,0.0,0.0,39,0.00,CLR,,0.00,661.0,WeatherDisplay:10.37,2013-10-21 18:22:00,
2013-10-21 12:27:00,54.1,29.0,30.22,WSW,245,1.2,1.2,38,0.00,CLR,,0.00,661.0,WeatherDisplay:10.37,2013-10-21 18:27:00,
2013-10-21 12:32:00,54.7,28.9,30.21,WSW,241,3.5,3.5,37,0.00,CLR,,0.00,663.0,WeatherDisplay:10.37,2013-10-21 18:32:00,
2013-10-21 12:37:00,54.8,27.6,30.21,West,276,2.3,2.3,35,0.00,CLR,,0.00,668.0,WeatherDisplay:10.37,2013-10-21 18:37:00,
2013-10-21 12:42:00,55.0,27.8,30.21,WSW,240,3.5,3.5,35,0.00,CLR,,0.00,666.0,WeatherDisplay:10.37,2013-10-21 18:42:00,
2013-10-21 12:47:00,55.4,28.9,30.21,SW,236,0.0,0.0,36,0.00,CLR,,0.00,666.0,WeatherDisplay:10.37,2013-10-21 18:47:00,
2013-10-21 12:52:00,55.7,28.4,30.20,SW,236,0.0,0.0,35,0.00,CLR,,0.00,666.0,WeatherDisplay:10.37,2013-10-21 18:52:00,
2013-10-21 12:57:00,56.0,28.0,30.20,SW,221,0.0,0.0,34,0.00,CLR,,0.00,666.0,WeatherDisplay:10.37,2013-10-21 18:57:00,
2013-10-21 13:02:00,56.2,26.7,30.19,WNW,301,0.0,0.0,32,0.00,CLR,,0.00,666.0,WeatherDisplay:10.37,2013-10-21 19:02:00,
2013-10-21 13:07:00,56.2,27.4,30.19,East,92,0.0,0.0,33,0.00,CLR,,0.00,661.0,WeatherDisplay:10.37,2013-10-21 19:07:00,
2013-10-21 13:12:00,56.3,29.0,30.19,East,91,0.0,0.0,35,0.00,CLR,,0.00,661.0,WeatherDisplay:10.37,2013-10-21 19:12:00,
2013-10-21 13:17:00,56.5,29.1,30.19,NE,50,3.5,3.5,35,0.00,CLR,,0.00,670.0,WeatherDisplay:10.37,2013-10-21 19:17:00,
2013-10-21 13:22:00,56.4,28.3,30.19,NW,309,1.2,1.2,34,0.00,CLR,,0.00,663.0,WeatherDisplay:10.37,2013-10-21 19:22:00,
2013-10-21 13:27:00,56.5,28.4,30.19,NW,307,3.5,3.5,34,0.00,CLR,,0.00,656.0,WeatherDisplay:10.37,2013-10-21 19:27:00,
2013-10-21 13:32:00,56.6,27.0,30.18,ENE,78,0.0,0.0,32,0.00,CLR,,0.00,656.0,WeatherDisplay:10.37,2013-10-21 19:32:00,
2013-10-21 13:37:00,56.5,28.4,30.18,ENE,78,0.0,0.0,34,0.00,CLR,,0.00,594.0,WeatherDisplay:10.37,2013-10-21 19:37:00,
2013-10-21 13:42:00,56.8,29.4,30.18,East,87,0.0,0.0,35,0.00,CLR,,0.00,464.0,WeatherDisplay:10.37,2013-10-21 19:42:00,
2013-10-21 13:47:00,56.8,28.0,30.18,East,98,0.0,0.0,33,0.00,CLR,,0.00,404.0,WeatherDisplay:10.37,2013-10-21 19:47:00,
2013-10-21 13:52:00,56.8,29.4,30.18,NNE,32,1.2,0.0,35,0.00,CLR,,0.00,494.0,WeatherDisplay:10.37,2013-10-21 19:52:00,
2013-10-21 13:57:00,56.7,29.3,30.18,WSW,243,0.0,0.0,35,0.00,CLR,,0.00,478.0,WeatherDisplay:10.37,2013-10-21 19:57:00,
2013-10-21 14:02:00,56.6,29.2,30.18,SW,226,3.0,3.0,35,0.00,CLR,,0.00,299.0,WeatherDisplay:10.37,2013-10-21 20:02:00,
2013-10-21 14:07:00,56.7,28.6,30.17,SW,217,3.5,3.5,34,0.00,FEW,,0.00,497.0,WeatherDisplay:10.37,2013-10-21 20:07:00,
2013-10-21 14:12:00,56.7,28.6,30.17,East,82,3.5,3.5,34,0.00,CLR,,0.00,299.0,WeatherDisplay:10.37,2013-10-21 20:12:00,
2013-10-21 14:17:00,56.6,27.8,30.17,East,99,0.0,0.0,33,0.00,FEW,,0.00,236.0,WeatherDisplay:10.37,2013-10-21 20:17:00,
2013-10-21 14:22:00,56.6,28.5,30.17,ESE,114,2.3,2.3,34,0.00,SCT,,0.00,232.0,WeatherDisplay:10.37,2013-10-21 20:22:00,
2013-10-21 14:27:00,56.7,29.3,30.17,East,94,5.8,5.8,35,0.00,SCT,,0.00,613.0,WeatherDisplay:10.37,2013-10-21 20:27:00,
2013-10-21 14:32:00,56.9,30.2,30.17,East,86,3.5,3.5,36,0.00,CLR,,0.00,608.0,WeatherDisplay:10.37,2013-10-21 20:32:00,
2013-10-21 14:37:00,56.9,28.8,30.17,NE,49,3.5,3.5,34,0.00,CLR,,0.00,587.0,WeatherDisplay:10.37,2013-10-21 20:37:00,
2013-10-21 14:42:00,57.0,28.9,30.17,NE,51,6.0,6.0,34,0.00,CLR,,0.00,570.0,WeatherDisplay:10.37,2013-10-21 20:42:00,
2013-10-21 14:47:00,56.9,28.1,30.17,North,355,5.8,5.8,33,0.00,CLR,,0.00,564.0,WeatherDisplay:10.37,2013-10-21 20:47:00,
2013-10-21 14:52:00,57.0,29.6,30.17,NNE,15,0.0,0.0,35,0.00,CLR,,0.00,533.0,WeatherDisplay:10.37,2013-10-21 20:52:00,
2013-10-21 14:57:00,57.4,28.5,30.17,ENE,78,4.6,4.6,33,0.00,CLR,,0.00,520.0,WeatherDisplay:10.37,2013-10-21 20:57:00,
2013-10-21 15:02:00,57.3,28.4,30.17,ENE,76,4.6,4.6,33,0.00,CLR,,0.00,512.0,WeatherDisplay:10.37,2013-10-21 21:02:00,
2013-10-21 15:07:00,57.5,30.0,30.16,ENE,74,1.2,0.0,35,0.00,CLR,,0.00,504.0,WeatherDisplay:10.37,2013-10-21 21:07:00,
2013-10-21 15:12:00,57.7,28.8,30.17,ENE,64,3.5,3.5,33,0.00,CLR,,0.00,489.0,WeatherDisplay:10.37,2013-10-21 21:12:00,
2013-10-21 15:17:00,57.8,29.6,30.16,East,90,4.6,4.6,34,0.00,CLR,,0.00,480.0,WeatherDisplay:10.37,2013-10-21 21:17:00,
2013-10-21 15:22:00,58.1,29.1,30.16,East,90,0.0,0.0,33,0.00,CLR,,0.00,469.0,WeatherDisplay:10.37,2013-10-21 21:22:00,
2013-10-21 15:27:00,58.0,29.0,30.17,East,90,0.0,0.0,33,0.00,CLR,,0.00,396.0,WeatherDisplay:10.37,2013-10-21 21:27:00,
2013-10-21 15:32:00,57.9,30.4,30.16,ENE,60,0.0,0.0,35,0.00,CLR,,0.00,418.0,WeatherDisplay:10.37,2013-10-21 21:32:00,
2013-10-21 15:37:00,58.0,29.8,30.16,ENE,63,0.0,0.0,34,0.00,CLR,,0.00,420.0,WeatherDisplay:10.37,2013-10-21 21:37:00,
2013-10-21 15:42:00,57.8,30.3,30.16,SSW,196,0.0,0.0,35,0.00,CLR,,0.00,348.0,WeatherDisplay:10.37,2013-10-21 21:42:00,
2013-10-21 15:47:00,57.8,30.3,30.15,SSW,194,0.0,0.0,35,0.00,CLR,,0.00,250.0,WeatherDisplay:10.37,2013-10-21 21:47:00,
2013-10-21 15:52:00,57.6,28.7,30.16,East,84,3.5,3.5,33,0.00,CLR,,0.00,121.0,WeatherDisplay:10.37,2013-10-21 21:52:00,
2013-10-21 15:57:00,57.4,28.5,30.16,East,85,0.0,0.0,33,0.00,FEW,,0.00,74.0,WeatherDisplay:10.37,2013-10-21 21:57:00,
2013-10-21 16:02:00,57.3,28.4,30.16,East,85,0.0,0.0,33,0.00,SCT,,0.00,63.0,WeatherDisplay:10.37,2013-10-21 22:02:00,
2013-10-21 16:07:00,57.1,29.0,30.15,East,85,0.0,0.0,34,0.00,SCT,,0.00,77.0,WeatherDisplay:10.37,2013-10-21 22:07:00,
2013-10-21 16:12:00,57.0,28.9,30.15,NE,34,2.3,0.0,34,0.00,SCT,,0.00,40.0,WeatherDisplay:10.37,2013-10-21 22:12:00,
2013-10-21 16:17:00,56.8,28.0,30.15,NE,34,0.0,0.0,33,0.00,SCT,,0.00,62.0,WeatherDisplay:10.37,2013-10-21 22:17:00,
2013-10-21 16:22:00,56.7,28.6,30.15,NE,34,0.0,0.0,34,0.00,FEW,,0.00,153.0,WeatherDisplay:10.37,2013-10-21 22:22:00,
2013-10-21 16:27:00,56.6,28.5,30.15,East,88,0.0,0.0,34,0.00,CLR,,0.00,200.0,WeatherDisplay:10.37,2013-10-21 22:27:00,
2013-10-21 16:32:00,56.7,28.6,30.14,East,89,0.0,0.0,34,0.00,CLR,,0.00,287.0,WeatherDisplay:10.37,2013-10-21 22:32:00,
2013-10-21 16:37:00,56.9,28.8,30.14,East,89,0.0,0.0,34,0.00,CLR,,0.00,269.0,WeatherDisplay:10.37,2013-10-21 22:37:00,
2013-10-21 16:42:00,57.2,29.1,30.14,East,89,0.0,0.0,34,0.00,CLR,,0.00,257.0,WeatherDisplay:10.37,2013-10-21 22:42:00,
2013-10-21 16:47:00,57.1,29.0,30.14,East,88,0.0,0.0,34,0.00,CLR,,0.00,37.0,WeatherDisplay:10.37,2013-10-21 22:47:00,
2013-10-21 16:52:00,56.9,28.8,30.14,East,88,0.0,0.0,34,0.00,CLR,,0.00,202.0,WeatherDisplay:10.37,2013-10-21 22:52:00,
2013-10-21 16:57:00,56.8,29.4,30.14,East,88,0.0,0.0,35,0.00,CLR,,0.00,211.0,WeatherDisplay:10.37,2013-10-21 22:57:00,
2013-10-21 17:02:00,56.8,30.1,30.14,East,88,0.0,0.0,36,0.00,CLR,,0.00,171.0,WeatherDisplay:10.37,2013-10-21 23:02:00,
2013-10-21 17:07:00,56.7,27.9,30.13,East,88,0.0,0.0,33,0.00,CLR,,0.00,54.0,WeatherDisplay:10.37,2013-10-21 23:07:00,
2013-10-21 17:12:00,56.6,29.2,30.13,East,88,0.0,0.0,35,0.00,CLR,,0.00,25.0,WeatherDisplay:10.37,2013-10-21 23:12:00,
2013-10-21 17:17:00,56.5,29.1,30.13,East,88,0.0,0.0,35,0.00,CLR,,0.00,40.0,WeatherDisplay:10.37,2013-10-21 23:17:00,
2013-10-21 17:22:00,56.3,29.0,30.13,East,88,0.0,0.0,35,0.00,CLR,,0.00,26.0,WeatherDisplay:10.37,2013-10-21 23:22:00,
2013-10-21 17:27:00,56.0,29.4,30.12,East,88,0.0,0.0,36,0.00,CLR,,0.00,19.0,WeatherDisplay:10.37,2013-10-21 23:27:00,
2013-10-21 17:32:00,55.7,29.8,30.13,East,88,0.0,0.0,37,0.00,CLR,,0.00,18.0,WeatherDisplay:10.37,2013-10-21 23:32:00,
2013-10-21 17:37:00,55.3,30.1,30.13,East,88,0.0,0.0,38,0.00,CLR,,0.00,16.0,WeatherDisplay:10.37,2013-10-21 23:37:00,
2013-10-21 17:42:00,54.9,30.4,30.13,East,88,0.0,0.0,39,0.00,CLR,,0.00,14.0,WeatherDisplay:10.37,2013-10-21 23:42:00,
2013-10-21 17:47:00,54.4,30.6,30.13,East,88,0.0,0.0,40,0.00,CLR,,0.00,12.0,WeatherDisplay:10.37,2013-10-21 23:47:00,
2013-10-21 17:52:00,54.0,30.8,30.13,East,88,0.0,0.0,41,0.00,CLR,,0.00,12.0,WeatherDisplay:10.37,2013-10-21 23:52:00,
2013-10-21 17:57:00,53.5,31.5,30.13,East,88,0.0,0.0,43,0.00,CLR,,0.00,11.0,WeatherDisplay:10.37,2013-10-21 23:57:00,
2013-10-21 18:02:00,52.9,31.0,30.13,East,88,0.0,0.0,43,0.00,CLR,,0.00,7.0,WeatherDisplay:10.37,2013-10-22 00:02:00,
2013-10-21 18:07:00,52.4,31.7,30.14,East,88,0.0,0.0,45,0.00,CLR,,0.00,5.0,WeatherDisplay:10.37,2013-10-22 00:07:00,
2013-10-21 18:12:00,51.8,31.7,30.14,East,88,0.0,0.0,46,0.00,CLR,,0.00,0.0,WeatherDisplay:10.37,2013-10-22 00:12:00,
2013-10-21 18:17:00,51.2,31.1,30.14,East,88,0.0,0.0,46,0.00,CLR,,0.00,0.0,WeatherDisplay:10.37,2013-10-22 00:17:00,
2013-10-21 18:22:00,50.6,32.1,30.14,East,88,0.0,0.0,49,0.00,CLR,,0.00,0.0,WeatherDisplay:10.37,2013-10-22 00:22:00,
2013-10-21 18:27:00,50.0,31.1,30.14,East,88,0.0,0.0,48,0.00,CLR,,0.00,0.0,WeatherDisplay:10.37,2013-10-22 00:27:00,
2013-10-21 18:32:00,49.4,31.5,30.14,East,88,0.0,0.0,50,0.00,CLR,,0.00,0.0,WeatherDisplay:10.37,2013-10-22 00:32:00,
2013-10-21 18:37:00,48.8,31.5,30.15,East,88,0.0,0.0,51,0.00,CLR,,0.00,0.0,WeatherDisplay:10.37,2013-10-22 00:37:00,
2013-10-21 18:42:00,48.2,33.2,30.15,East,88,0.0,0.0,56,0.00,CLR,,0.00,0.0,WeatherDisplay:10.37,2013-10-22 00:42:00,
2013-10-21 18:47:00,47.7,32.3,30.15,East,88,0.0,0.0,55,0.00,CLR,,0.00,0.0,WeatherDisplay:10.37,2013-10-22 00:47:00,
2013-10-21 18:52:00,47.1,32.2,30.15,East,88,0.0,0.0,56,0.00,CLR,,0.00,0.0,WeatherDisplay:10.37,2013-10-22 00:52:00,
2013-10-21 18:57:00,46.5,32.1,30.15,East,88,0.0,0.0,57,0.00,CLR,,0.00,0.0,WeatherDisplay:10.37,2013-10-22 00:57:00,
2013-10-21 19:02:00,45.9,31.5,30.15,East,88,0.0,0.0,57,0.00,CLR,,0.00,0.0,WeatherDisplay:10.37,2013-10-22 01:02:00,
2013-10-21 19:07:00,45.4,31.5,30.15,East,88,0.0,0.0,58,0.00,CLR,,0.00,0.0,WeatherDisplay:10.37,2013-10-22 01:07:00,
2013-10-21 19:12:00,45.0,32.3,30.15,East,88,0.0,0.0,61,0.00,CLR,,0.00,0.0,WeatherDisplay:10.37,2013-10-22 01:12:00,
2013-10-21 19:17:00,44.8,32.2,30.15,East,88,0.0,0.0,61,0.00,CLR,,0.00,0.0,WeatherDisplay:10.37,2013-10-22 01:17:00,
2013-10-21 19:22:00,44.5,31.9,30.15,East,88,0.0,0.0,61,0.00,CLR,,0.00,0.0,WeatherDisplay:10.37,2013-10-22 01:22:00,
2013-10-21 19:27:00,44.2,32.4,30.15,East,88,0.0,0.0,63,0.00,CLR,,0.00,0.0,WeatherDisplay:10.37,2013-10-22 01:27:00,
2013-10-21 19:32:00,44.1,32.3,30.15,East,88,0.0,0.0,63,0.00,CLR,,0.00,0.0,WeatherDisplay:10.37,2013-10-22 01:32:00,
2013-10-21 19:37:00,43.9,32.1,30.15,East,88,0.0,0.0,63,0.00,CLR,,0.00,0.0,WeatherDisplay:10.37,2013-10-22 01:37:00,
2013-10-21 19:42:00,43.6,31.8,30.16,East,88,0.0,0.0,63,0.00,CLR,,0.00,0.0,WeatherDisplay:10.37,2013-10-22 01:42:00,
2013-10-21 19:47:00,43.3,31.9,30.16,East,88,0.0,0.0,64,0.00,CLR,,0.00,0.0,WeatherDisplay:10.37,2013-10-22 01:47:00,
2013-10-21 19:52:00,43.0,32.0,30.16,East,88,0.0,0.0,65,0.00,CLR,,0.00,0.0,WeatherDisplay:10.37,2013-10-22 01:52:00,
2013-10-21 19:54:00,42.9,31.9,30.16,East,88,0.0,0.0,65,0.00,CLR,,0.00,0.0,WeatherDisplay:10.37,2013-10-22 01:54:00,
2013-10-21 19:59:00,42.6,32.0,30.17,East,88,0.0,0.0,66,0.00,CLR,,0.00,0.0,WeatherDisplay:10.37,2013-10-22 01:59:00,
2013-10-21 20:04:00,42.3,32.5,30.17,East,88,0.0,0.0,68,0.00,CLR,,0.00,0.0,WeatherDisplay:10.37,2013-10-22 02:04:00,
2013-10-21 20:09:00,42.1,32.3,30.16,East,88,0.0,0.0,68,0.00,CLR,,0.00,0.0,WeatherDisplay:10.37,2013-10-22 02:09:00,
2013-10-21 20:14:00,41.9,32.1,30.16,East,88,0.0,0.0,68,0.00,CLR,,0.00,0.0,WeatherDisplay:10.37,2013-10-22 02:14:00,
2013-10-21 20:19:00,41.7,32.6,30.16,East,88,0.0,0.0,70,0.00,CLR,,0.00,0.0,WeatherDisplay:10.37,2013-10-22 02:19:00,
2013-10-21 20:24:00,41.5,32.4,30.17,East,88,0.0,0.0,70,0.00,CLR,,0.00,0.0,WeatherDisplay:10.37,2013-10-22 02:24:00,
2013-10-21 20:29:00,41.3,32.2,30.17,East,88,0.0,0.0,70,0.00,CLR,,0.00,0.0,WeatherDisplay:10.37,2013-10-22 02:29:00,
2013-10-21 20:34:00,41.2,32.5,30.17,East,88,0.0,0.0,71,0.00,CLR,,0.00,0.0,WeatherDisplay:10.37,2013-10-22 02:34:00,
2013-10-21 20:39:00,41.2,32.5,30.17,East,88,0.0,0.0,71,0.00,CLR,,0.00,0.0,WeatherDisplay:10.37,2013-10-22 02:39:00,
2013-10-21 20:44:00,41.1,32.4,30.17,East,88,0.0,0.0,71,0.00,CLR,,0.00,0.0,WeatherDisplay:10.37,2013-10-22 02:44:00,
2013-10-21 20:49:00,41.0,32.3,30.17,East,88,0.0,0.0,71,0.00,CLR,,0.00,0.0,WeatherDisplay:10.37,2013-10-22 02:49:00,
2013-10-21 20:54:00,40.9,32.2,30.17,East,88,0.0,0.0,71,0.00,CLR,,0.00,0.0,WeatherDisplay:10.37,2013-10-22 02:54:00,
2013-10-21 20:59:00,40.7,31.7,30.17,East,88,0.0,0.0,70,0.00,CLR,,0.00,0.0,WeatherDisplay:10.37,2013-10-22 02:59:00,
2013-10-21 21:04:00,40.7,32.0,30.17,East,88,0.0,0.0,71,0.00,CLR,,0.00,0.0,WeatherDisplay:10.37,2013-10-22 03:04:00,
2013-10-21 21:09:00,40.7,31.7,30.18,East,88,0.0,0.0,70,0.00,CLR,,0.00,0.0,WeatherDisplay:10.37,2013-10-22 03:09:00,
2013-10-21 21:14:00,40.7,32.0,30.18,East,88,0.0,0.0,71,0.00,CLR,,0.00,0.0,WeatherDisplay:10.37,2013-10-22 03:14:00,
2013-10-21 21:19:00,40.7,31.7,30.18,East,88,0.0,0.0,70,0.00,CLR,,0.00,0.0,WeatherDisplay:10.37,2013-10-22 03:19:00,
2013-10-21 21:24:00,40.6,31.2,30.18,East,88,0.0,0.0,69,0.00,CLR,,0.00,0.0,WeatherDisplay:10.37,2013-10-22 03:24:00,
2013-10-21 21:29:00,40.5,31.5,30.18,East,88,0.0,0.0,70,0.00,CLR,,0.00,0.0,WeatherDisplay:10.37,2013-10-22 03:29:00,
2013-10-21 21:34:00,40.4,31.0,30.18,East,88,0.0,0.0,69,0.00,CLR,,0.00,0.0,WeatherDisplay:10.37,2013-10-22 03:34:00,
2013-10-21 21:39:00,40.4,31.4,30.19,East,88,0.0,0.0,70,0.00,CLR,,0.00,0.0,WeatherDisplay:10.37,2013-10-22 03:39:00,
2013-10-21 21:44:00,40.6,31.2,30.18,SSW,198,0.0,0.0,69,0.00,CLR,,0.00,0.0,WeatherDisplay:10.37,2013-10-22 03:44:00,
2013-10-21 21:49:00,40.7,31.3,30.18,SSW,198,0.0,0.0,69,0.00,CLR,,0.00,0.0,WeatherDisplay:10.37,2013-10-22 03:49:00,
2013-10-21 21:54:00,40.8,31.1,30.19,SSW,198,0.0,0.0,68,0.00,CLR,,0.00,0.0,WeatherDisplay:10.37,2013-10-22 03:54:00,
2013-10-21 21:59:00,41.0,31.2,30.19,SSW,198,0.0,0.0,68,0.00,CLR,,0.00,0.0,WeatherDisplay:10.37,2013-10-22 03:59:00,
2013-10-21 22:01:00,41.0,31.2,30.19,SSW,198,0.0,0.0,68,0.00,CLR,,0.00,0.0,WeatherDisplay:10.37,2013-10-22 04:01:00,
2013-10-21 22:06:00,41.0,31.2,30.19,SSW,198,0.0,0.0,68,0.00,CLR,,0.00,0.0,WeatherDisplay:10.37,2013-10-22 04:06:00,
2013-10-21 22:11:00,41.0,31.2,30.19,SSW,198,0.0,0.0,68,0.00,CLR,,0.00,0.0,WeatherDisplay:10.37,2013-10-22 04:11:00,
2013-10-21 22:16:00,40.9,30.8,30.19,SSW,198,0.0,0.0,67,0.00,CLR,,0.00,0.0,WeatherDisplay:10.37,2013-10-22 04:16:00,
2013-10-21 22:21:00,40.8,30.7,30.19,SSW,198,0.0,0.0,67,0.00,CLR,,0.00,0.0,WeatherDisplay:10.37,2013-10-22 04:21:00,
2013-10-21 22:26:00,40.7,30.6,30.19,SSW,198,0.0,0.0,67,0.00,CLR,,0.00,0.0,WeatherDisplay:10.37,2013-10-22 04:26:00,
2013-10-21 22:31:00,40.7,30.6,30.19,SSW,198,0.0,0.0,67,0.00,CLR,,0.00,0.0,WeatherDisplay:10.37,2013-10-22 04:31:00,
2013-10-21 22:36:00,40.7,30.6,30.19,SSW,198,0.0,0.0,67,0.00,CLR,,0.00,0.0,WeatherDisplay:10.37,2013-10-22 04:36:00,
2013-10-21 22:41:00,40.6,30.5,30.19,SSW,198,0.0,0.0,67,0.00,CLR,,0.00,0.0,WeatherDisplay:10.37,2013-10-22 04:41:00,
2013-10-21 22:46:00,40.4,30.7,30.19,SSW,198,0.0,0.0,68,0.00,CLR,,0.00,0.0,WeatherDisplay:10.37,2013-10-22 04:46:00,
2013-10-21 22:51:00,40.3,30.9,30.18,SSW,198,0.0,0.0,69,0.00,CLR,,0.00,0.0,WeatherDisplay:10.37,2013-10-22 04:51:00,
2013-10-21 22:56:00,40.2,30.8,30.18,SSW,198,0.0,0.0,69,0.00,CLR,,0.00,0.0,WeatherDisplay:10.37,2013-10-22 04:56:00,
2013-10-21 23:01:00,40.2,30.8,30.18,SSW,198,0.0,0.0,69,0.00,CLR,,0.00,0.0,WeatherDisplay:10.37,2013-10-22 05:01:00,
2013-10-21 23:06:00,40.1,30.7,30.18,SSW,198,0.0,0.0,69,0.00,CLR,,0.00,0.0,WeatherDisplay:10.37,2013-10-22 05:06:00,
2013-10-21 23:11:00,40.0,30.6,30.18,SSW,198,0.0,0.0,69,0.00,CLR,,0.00,0.0,WeatherDisplay:10.37,2013-10-22 05:11:00,
2013-10-21 23:16:00,40.0,30.3,30.18,SSW,198,0.0,0.0,68,0.00,CLR,,0.00,0.0,WeatherDisplay:10.37,2013-10-22 05:16:00,
2013-10-21 23:21:00,40.0,30.3,30.18,SSW,198,0.0,0.0,68,0.00,CLR,,0.00,0.0,WeatherDisplay:10.37,2013-10-22 05:21:00,
2013-10-21 23:26:00,39.9,30.2,30.18,SSW,198,0.0,0.0,68,0.00,CLR,,0.00,0.0,WeatherDisplay:10.37,2013-10-22 05:26:00,
2013-10-21 23:31:00,39.7,30.0,30.18,SSW,198,0.0,0.0,68,0.00,CLR,,0.00,0.0,WeatherDisplay:10.37,2013-10-22 05:31:00,
2013-10-21 23:36:00,39.6,29.9,30.17,SSW,198,0.0,0.0,68,0.00,CLR,,0.00,0.0,WeatherDisplay:10.37,2013-10-22 05:36:00,
2013-10-21 23:41:00,39.4,30.1,30.17,SSW,198,0.0,0.0,69,0.00,CLR,,0.00,0.0,WeatherDisplay:10.37,2013-10-22 05:41:00,
2013-10-21 23:46:00,39.2,29.9,30.17,SSW,198,0.0,0.0,69,0.00,CLR,,0.00,0.0,WeatherDisplay:10.37,2013-10-22 05:46:00,
2013-10-21 23:51:00,39.0,29.7,30.17,SSW,198,0.0,0.0,69,0.00,CLR,,0.00,0.0,WeatherDisplay:10.37,2013-10-22 05:51:00,
2013-10-21 23:56:00,38.9,29.6,30.17,SSW,198,0.0,0.0,69,0.00,CLR,,0.00,0.0,WeatherDisplay:10.37,2013-10-22 05:56:00,